Isles of Scilly, United Kingdom
Current Conditions -  °F | °C
As of 2:20 PM on Friday 28 Nov 2014 (Local Time) from EGHE Reporting Station
Few Clouds Few Clouds  
Wind Chill: 55°   Ceiling: Unl
Heat Index: 55°   Visibility: 5mi
Dew Point: 52°   Wind: 36mph
Humidity: 88%   Direction: 100°E
Pressure: 29.38"   Gusts: NA
Location:  49.91°N, 6.31°W
Report Text: EGHE 281420Z 10031KT 8000 FEW009 13/11 Q0995
Loading
Personal Weather Stations






























Interactive Weather Map New forecast layout! Learn more

10-Day Weather Forecast

Advertisements
Track Severe Weather on mobile